Time;durP1;ratioP1;P1;durP2;ratioP2;P2;SDS_P1;SDS_P2;PMS_P1;PMS_P2;Temp;Humidity;BMP_temperature;BMP_pressure;BME280_temperature;BME280_humidity;BME280_pressure;Samples;Min_cycle;Max_cycle;Signal;HPM_P1;HPM_P2
2023/06/21 00:00:15;;;;;;;10.98;5.07;;;;;;;;;;10591304;27;20319;-78
2023/06/21 00:05:20;;;;;;;12.40;5.05;;;;;;;;;;10592473;27;20126;-77
2023/06/21 00:10:23;;;;;;;11.52;4.90;;;;;;;;;;10592946;27;20043;-77
2023/06/21 00:15:26;;;;;;;12.27;5.43;;;;;;;;;;10593437;27;20103;-78
2023/06/21 00:20:31;;;;;;;11.60;5.35;;;;;;;;;;10596336;27;20518;-78
2023/06/21 00:25:36;;;;;;;16.17;5.75;;;;;;;;;;10595282;27;20119;-77
2023/06/21 00:30:41;;;;;;;17.02;6.30;;;;;;;;;;10579920;27;20040;-78
2023/06/21 00:35:45;;;;;;;10.65;5.97;;;;;;;;;;10571723;27;20057;-78
2023/06/21 00:40:49;;;;;;;12.10;5.90;;;;;;;;;;10578552;27;20046;-78
2023/06/21 00:45:54;;;;;;;14.40;5.82;;;;;;;;;;10603515;27;20581;-77
2023/06/21 00:50:59;;;;;;;12.43;5.40;;;;;;;;;;10591099;27;20044;-77
2023/06/21 00:56:02;;;;;;;13.65;5.35;;;;;;;;;;10595511;27;20313;-77
2023/06/21 01:01:05;;;;;;;18.60;5.88;;;;;;;;;;10596935;27;20075;-77
2023/06/21 01:06:12;;;;;;;14.90;5.60;;;;;;;;;;10602880;27;20116;-79
2023/06/21 01:11:20;;;;;;;14.55;5.78;;;;;;;;;;10581606;27;20100;-78
2023/06/21 01:16:27;;;;;;;12.82;5.25;;;;;;;;;;10590754;27;20062;-77
2023/06/21 01:21:32;;;;;;;11.18;5.45;;;;;;;;;;10586021;27;20050;-76
2023/06/21 01:26:43;;;;;;;16.05;5.07;;;;;;;;;;10593395;27;20617;-78
2023/06/21 01:31:50;;;;;;;16.63;5.15;;;;;;;;;;10583292;27;20051;-76
2023/06/21 01:36:53;;;;;;;11.73;5.03;;;;;;;;;;10596413;27;20044;-77
2023/06/21 01:41:56;;;;;;;13.90;5.30;;;;;;;;;;10593046;27;20067;-77
2023/06/21 01:47:00;;;;;;;11.43;5.10;;;;;;;;;;10589387;28;20078;-77
2023/06/21 01:52:05;;;;;;;12.38;5.10;;;;;;;;;;10592384;28;20058;-76
2023/06/21 01:57:10;;;;;;;14.55;5.68;;;;;;;;;;10591877;28;20111;-77
2023/06/21 02:02:15;;;;;;;11.32;5.55;;;;;;;;;;10588884;27;20065;-76
2023/06/21 02:07:17;;;;;;;11.38;4.57;;;;;;;;;;10600615;27;20082;-76
2023/06/21 02:12:20;;;;;;;15.07;6.05;;;;;;;;;;10596950;27;20040;-76
2023/06/21 02:17:24;;;;;;;11.10;4.85;;;;;;;;;;10604906;27;20130;-76
2023/06/21 02:22:27;;;;;;;10.80;4.97;;;;;;;;;;10595749;27;20043;-76
2023/06/21 02:27:30;;;;;;;16.75;5.25;;;;;;;;;;10605090;27;20126;-76
2023/06/21 02:32:34;;;;;;;10.18;4.43;;;;;;;;;;10595863;27;20098;-77
2023/06/21 02:37:37;;;;;;;12.48;4.72;;;;;;;;;;10596572;27;20051;-76
2023/06/21 02:42:40;;;;;;;10.85;5.07;;;;;;;;;;10591966;27;20035;-78
2023/06/21 02:47:44;;;;;;;9.45;4.75;;;;;;;;;;10590352;27;21215;-77
2023/06/21 02:52:47;;;;;;;18.33;5.28;;;;;;;;;;10595537;27;20243;-78
2023/06/21 02:57:50;;;;;;;10.38;5.20;;;;;;;;;;10604190;27;20059;-76
2023/06/21 03:02:54;;;;;;;13.95;4.68;;;;;;;;;;10592897;27;20095;-76
2023/06/21 03:08:00;;;;;;;10.98;5.18;;;;;;;;;;10567449;27;20067;-77
2023/06/21 03:13:03;;;;;;;15.13;7.55;;;;;;;;;;10598179;27;20108;-76
2023/06/21 03:18:07;;;;;;;14.27;5.68;;;;;;;;;;10590922;27;20071;-77
2023/06/21 03:23:09;;;;;;;46.47;16.10;;;;;;;;;;10588889;27;20035;-76
2023/06/21 03:28:13;;;;;;;48.90;19.00;;;;;;;;;;10593112;27;20048;-77
2023/06/21 03:33:17;;;;;;;33.80;12.65;;;;;;;;;;10593120;27;20039;-75
2023/06/21 03:38:20;;;;;;;17.38;7.72;;;;;;;;;;10571719;27;20066;-77
2023/06/21 03:43:24;;;;;;;14.35;7.30;;;;;;;;;;10589662;27;20074;-78
2023/06/21 03:48:28;;;;;;;17.17;6.32;;;;;;;;;;10572468;27;20139;-78
2023/06/21 03:53:31;;;;;;;15.27;6.70;;;;;;;;;;10585796;27;20095;-76
2023/06/21 03:58:34;;;;;;;17.67;6.65;;;;;;;;;;10591320;27;20115;-76
2023/06/21 04:03:41;;;;;;;14.80;6.65;;;;;;;;;;10592269;27;20043;-77
2023/06/21 04:08:44;;;;;;;13.30;5.75;;;;;;;;;;10586360;27;20051;-75
2023/06/21 04:13:47;;;;;;;13.98;6.35;;;;;;;;;;10585361;27;20123;-76
2023/06/21 04:18:55;;;;;;;11.30;5.32;;;;;;;;;;10584952;27;20095;-76
2023/06/21 04:23:58;;;;;;;11.13;4.50;;;;;;;;;;10595899;27;20055;-77
2023/06/21 04:29:01;;;;;;;12.65;5.60;;;;;;;;;;10590448;27;20131;-77
2023/06/21 04:34:06;;;;;;;11.52;6.18;;;;;;;;;;10596371;27;20138;-75
2023/06/21 04:39:09;;;;;;;12.65;5.13;;;;;;;;;;10586655;27;20039;-76
2023/06/21 04:44:12;;;;;;;14.57;4.93;;;;;;;;;;10585808;27;20233;-76
2023/06/21 04:49:17;;;;;;;12.18;6.22;;;;;;;;;;10586771;27;20149;-76
2023/06/21 04:54:23;;;;;;;14.15;5.75;;;;;;;;;;10593326;27;20155;-76
2023/06/21 04:59:25;;;;;;;12.43;5.68;;;;;;;;;;10586735;27;20110;-78
2023/06/21 05:04:30;;;;;;;11.70;5.85;;;;;;;;;;10572072;27;20063;-77
2023/06/21 05:09:33;;;;;;;13.23;6.25;;;;;;;;;;10589067;27;20071;-76
2023/06/21 05:14:35;;;;;;;15.32;6.03;;;;;;;;;;10590635;27;20074;-77
2023/06/21 05:19:38;;;;;;;;;;;;;;;;;;10587738;27;20047;-76
2023/06/21 05:24:43;;;;;;;14.40;6.13;;;;;;;;;;10583753;27;19934;-77
2023/06/21 05:29:45;;;;;;;13.50;6.13;;;;;;;;;;10581713;28;20131;-77
2023/06/21 05:34:48;;;;;;;16.48;5.80;;;;;;;;;;10582971;28;20154;-76
2023/06/21 05:39:52;;;;;;;14.60;5.78;;;;;;;;;;10598467;27;20066;-86
2023/06/21 05:44:55;;;;;;;15.05;6.53;;;;;;;;;;10582466;28;20147;-76
2023/06/21 05:49:58;;;;;;;13.88;5.68;;;;;;;;;;10590274;28;20043;-76
2023/06/21 05:55:02;;;;;;;9.40;5.07;;;;;;;;;;10589052;28;20089;-76
2023/06/21 06:00:08;;;;;;;11.93;5.50;;;;;;;;;;10584804;28;20039;-76
2023/06/21 06:05:11;;;;;;;10.05;4.93;;;;;;;;;;10565322;28;20044;-76
2023/06/21 06:10:15;;;;;;;10.15;5.93;;;;;;;;;;10563589;28;20052;-75
2023/06/21 06:15:18;;;;;;;10.85;5.32;;;;;;;;;;10579643;28;20659;-76
2023/06/21 06:20:21;;;;;;;14.35;4.88;;;;;;;;;;10584286;28;20051;-76
2023/06/21 06:25:24;;;;;;;;;;;;;;;;;;10576525;28;20306;-76
2023/06/21 06:30:28;;;;;;;13.20;5.28;;;;;;;;;;10579059;28;19942;-76
2023/06/21 06:35:32;;;;;;;10.30;5.05;;;;;;;;;;10572841;28;20126;-76
2023/06/21 06:40:35;;;;;;;16.20;4.82;;;;;;;;;;10583040;28;20592;-76
2023/06/21 06:45:40;;;;;;;10.25;5.13;;;;;;;;;;10582074;28;20135;-75
2023/06/21 06:50:43;;;;;;;13.73;6.05;;;;;;;;;;10582222;27;20050;-77
2023/06/21 06:55:46;;;;;;;9.35;5.03;;;;;;;;;;10587133;27;20055;-75
2023/06/21 07:00:50;;;;;;;11.82;5.32;;;;;;;;;;10578620;27;20060;-75
2023/06/21 07:05:53;;;;;;;12.18;5.47;;;;;;;;;;10581352;27;20039;-75
2023/06/21 07:10:55;;;;;;;;;;;;;;;;;;10589637;27;20095;-76
2023/06/21 07:15:59;;;;;;;14.87;5.63;;;;;;;;;;10588925;27;20219;-75
2023/06/21 07:21:02;;;;;;;11.50;5.15;;;;;;;;;;10590550;27;21775;-75
2023/06/21 07:26:05;;;;;;;12.60;5.53;;;;;;;;;;10585355;27;20047;-76
2023/06/21 07:31:07;;;;;;;;;;;;;;;;;;10588640;27;20131;-76
2023/06/21 07:36:12;;;;;;;14.30;4.90;;;;;;;;;;10588916;27;20381;-76
2023/06/21 07:41:15;;;;;;;12.65;4.90;;;;;;;;;;10581997;27;20058;-76
2023/06/21 07:46:18;;;;;;;9.85;4.75;;;;;;;;;;10583146;27;20039;-76
2023/06/21 07:51:22;;;;;;;11.73;5.20;;;;;;;;;;10584834;27;20036;-76
2023/06/21 07:56:24;;;;;;;12.98;4.90;;;;;;;;;;10580896;27;20103;-74
2023/06/21 08:01:29;;;;;;;9.23;5.18;;;;;;;;;;10583155;28;20051;-76
2023/06/21 08:06:33;;;;;;;21.58;6.25;;;;;;;;;;10581001;27;20136;-75
2023/06/21 08:11:36;;;;;;;14.45;5.32;;;;;;;;;;10581048;27;20043;-75
2023/06/21 08:16:39;;;;;;;14.70;5.13;;;;;;;;;;10564062;27;20154;-76
2023/06/21 08:21:44;;;;;;;12.98;6.32;;;;;;;;;;10588123;27;20031;-76
2023/06/21 08:26:48;;;;;;;14.13;5.30;;;;;;;;;;10581903;28;20390;-77
2023/06/21 08:31:50;;;;;;;11.90;5.07;;;;;;;;;;10563526;28;20042;-77
2023/06/21 08:36:54;;;;;;;9.18;4.78;;;;;;;;;;10576873;28;20031;-77
2023/06/21 08:41:57;;;;;;;10.13;4.97;;;;;;;;;;10576869;28;20127;-77
2023/06/21 08:47:03;;;;;;;10.98;5.50;;;;;;;;;;10578529;28;20107;-77
2023/06/21 08:52:08;;;;;;;10.00;5.40;;;;;;;;;;10596154;27;20048;-77
2023/06/21 08:57:15;;;;;;;9.13;5.03;;;;;;;;;;10584605;27;20040;-78
2023/06/21 09:02:23;;;;;;;14.05;5.20;;;;;;;;;;10579421;28;20039;-76
2023/06/21 09:07:28;;;;;;;18.05;6.20;;;;;;;;;;10560869;28;20579;-77
2023/06/21 09:12:31;;;;;;;12.68;5.18;;;;;;;;;;10582926;27;20066;-76
2023/06/21 09:17:34;;;;;;;9.07;5.57;;;;;;;;;;10581961;27;20574;-76
2023/06/21 09:22:38;;;;;;;11.38;5.63;;;;;;;;;;10580166;27;20043;-77
2023/06/21 09:27:41;;;;;;;13.32;6.20;;;;;;;;;;10581536;28;20055;-77
2023/06/21 09:32:44;;;;;;;7.95;5.65;;;;;;;;;;10579781;28;20575;-76
2023/06/21 09:37:48;;;;;;;11.75;6.10;;;;;;;;;;10561031;28;20050;-76
2023/06/21 09:42:51;;;;;;;9.77;6.00;;;;;;;;;;10580068;28;20063;-75
2023/06/21 09:47:54;;;;;;;11.40;6.55;;;;;;;;;;10587689;28;20055;-75
2023/06/21 09:52:58;;;;;;;10.70;5.65;;;;;;;;;;10580826;28;20099;-74
2023/06/21 09:58:01;;;;;;;10.52;5.88;;;;;;;;;;10588756;28;20126;-74
2023/06/21 10:03:04;;;;;;;9.90;5.32;;;;;;;;;;10583559;28;20032;-74
2023/06/21 10:08:09;;;;;;;12.52;5.75;;;;;;;;;;10581880;28;20096;-74
2023/06/21 10:13:12;;;;;;;11.38;5.50;;;;;;;;;;10580742;28;20028;-74
2023/06/21 10:18:16;;;;;;;9.57;5.75;;;;;;;;;;10582216;28;20356;-75
2023/06/21 10:23:21;;;;;;;12.85;6.10;;;;;;;;;;10577349;28;20066;-75
2023/06/21 10:28:27;;;;;;;14.73;5.60;;;;;;;;;;10586068;27;20096;-75
2023/06/21 10:33:30;;;;;;;12.27;6.20;;;;;;;;;;10593087;27;20035;-74
2023/06/21 10:38:38;;;;;;;11.23;6.20;;;;;;;;;;10583301;27;20492;-75
2023/06/21 10:43:41;;;;;;;14.63;6.55;;;;;;;;;;10580344;28;20109;-74
2023/06/21 10:48:44;;;;;;;13.57;6.38;;;;;;;;;;10584587;27;20066;-75
2023/06/21 10:53:49;;;;;;;22.38;6.05;;;;;;;;;;10563813;27;20485;-74
2023/06/21 10:58:52;;;;;;;11.40;3.40;;;;;;;;;;10592599;28;20100;-73
2023/06/21 11:03:55;;;;;;;19.83;3.60;;;;;;;;;;10596543;27;20039;-74
2023/06/21 11:09:06;;;;;;;18.10;3.65;;;;;;;;;;10599013;27;20888;-74
2023/06/21 11:14:09;;;;;;;13.45;4.00;;;;;;;;;;10589892;27;20121;-74
2023/06/21 11:19:14;;;;;;;12.00;3.60;;;;;;;;;;10590429;27;20364;-75
2023/06/21 11:24:19;;;;;;;15.30;4.28;;;;;;;;;;10591710;28;20040;-75
2023/06/21 11:29:22;;;;;;;15.43;4.10;;;;;;;;;;10588050;28;20454;-74
2023/06/21 11:34:26;;;;;;;20.55;4.32;;;;;;;;;;10586396;28;20046;-75
2023/06/21 11:39:30;;;;;;;12.40;3.40;;;;;;;;;;10581297;27;20054;-75
2023/06/21 11:44:33;;;;;;;17.52;4.10;;;;;;;;;;10588072;28;20036;-75
2023/06/21 11:49:45;;;;;;;14.05;3.72;;;;;;;;;;10588142;27;20043;-75
2023/06/21 11:54:49;;;;;;;18.73;4.07;;;;;;;;;;10587626;27;20048;-77
2023/06/21 11:59:52;;;;;;;16.63;3.33;;;;;;;;;;10588723;27;20122;-77
2023/06/21 12:04:55;;;;;;;16.90;3.65;;;;;;;;;;10591137;27;20135;-75
2023/06/21 12:10:01;;;;;;;17.27;3.60;;;;;;;;;;10590632;28;20066;-75
2023/06/21 12:15:05;;;;;;;23.33;3.80;;;;;;;;;;10586248;27;20097;-77
2023/06/21 12:20:08;;;;;;;12.18;3.20;;;;;;;;;;10586035;28;20083;-77
2023/06/21 12:25:13;;;;;;;13.93;3.05;;;;;;;;;;10586625;28;20416;-76
2023/06/21 12:30:16;;;;;;;12.38;3.50;;;;;;;;;;10594300;27;20071;-77
2023/06/21 12:35:19;;;;;;;15.88;3.22;;;;;;;;;;10589145;27;20115;-75
2023/06/21 12:40:23;;;;;;;11.77;3.25;;;;;;;;;;10587782;28;20046;-75
2023/06/21 12:45:26;;;;;;;13.85;3.50;;;;;;;;;;10591196;27;20074;-75
2023/06/21 12:50:28;;;;;;;14.98;3.50;;;;;;;;;;10582111;28;20118;-75
2023/06/21 12:55:33;;;;;;;14.73;2.88;;;;;;;;;;10586106;27;20053;-76
2023/06/21 13:00:36;;;;;;;12.48;3.00;;;;;;;;;;10583475;27;20048;-77
2023/06/21 13:05:39;;;;;;;10.10;3.72;;;;;;;;;;10586670;27;20046;-77
2023/06/21 13:10:43;;;;;;;14.45;3.50;;;;;;;;;;10583916;28;20051;-75
2023/06/21 13:15:45;;;;;;;11.27;3.60;;;;;;;;;;10583291;27;20371;-75
2023/06/21 13:20:48;;;;;;;16.30;3.20;;;;;;;;;;10580298;28;20499;-75
2023/06/21 13:25:52;;;;;;;8.88;3.10;;;;;;;;;;10588150;27;20047;-76
2023/06/21 13:30:55;;;;;;;9.48;2.83;;;;;;;;;;10592898;27;20540;-76
2023/06/21 13:35:58;;;;;;;16.88;3.50;;;;;;;;;;10586074;28;20049;-76
2023/06/21 13:41:03;;;;;;;13.60;3.38;;;;;;;;;;10584110;28;20392;-77
2023/06/21 13:46:06;;;;;;;10.07;3.15;;;;;;;;;;10585657;28;20159;-81
2023/06/21 13:51:09;;;;;;;16.92;5.55;;;;;;;;;;10581379;28;20047;-77
2023/06/21 13:56:13;;;;;;;14.13;2.58;;;;;;;;;;10581257;28;20067;-76
2023/06/21 14:01:16;;;;;;;14.07;5.07;;;;;;;;;;10590264;27;20404;-76
2023/06/21 14:06:20;;;;;;;13.52;3.20;;;;;;;;;;10594946;27;20132;-76
2023/06/21 14:11:24;;;;;;;10.40;2.90;;;;;;;;;;10588719;28;20048;-76
2023/06/21 14:16:27;;;;;;;7.55;2.40;;;;;;;;;;10566242;28;20043;-75
2023/06/21 14:21:30;;;;;;;11.07;2.83;;;;;;;;;;10551268;28;20044;-75
2023/06/21 14:26:35;;;;;;;7.80;2.60;;;;;;;;;;10544184;28;20124;-75
2023/06/21 14:31:37;;;;;;;8.52;2.45;;;;;;;;;;10549623;28;20044;-75
2023/06/21 14:36:41;;;;;;;11.02;2.75;;;;;;;;;;10549839;28;20048;-76
2023/06/21 14:41:45;;;;;;;6.93;2.55;;;;;;;;;;10548612;28;20063;-76
2023/06/21 14:46:48;;;;;;;12.77;2.70;;;;;;;;;;10548737;28;20104;-77
2023/06/21 14:51:51;;;;;;;8.48;2.42;;;;;;;;;;10547288;28;20075;-76
2023/06/21 14:56:55;;;;;;;8.68;2.40;;;;;;;;;;10580393;27;20112;-76
2023/06/21 15:01:58;;;;;;;10.05;2.63;;;;;;;;;;10548851;28;20110;-75
2023/06/21 15:07:02;;;;;;;9.02;2.63;;;;;;;;;;10548104;28;20173;-75
2023/06/21 15:12:07;;;;;;;10.05;2.95;;;;;;;;;;10547179;28;20052;-75
2023/06/21 15:17:11;;;;;;;10.43;3.50;;;;;;;;;;10556107;28;20059;-76
2023/06/21 15:22:13;;;;;;;10.43;2.92;;;;;;;;;;10586039;28;20126;-75
2023/06/21 15:27:17;;;;;;;12.48;3.08;;;;;;;;;;10592835;27;20111;-75
2023/06/21 15:32:20;;;;;;;11.55;2.67;;;;;;;;;;10590582;28;20066;-76
2023/06/21 15:37:23;;;;;;;11.25;2.85;;;;;;;;;;10569679;28;20523;-76
2023/06/21 15:42:27;;;;;;;8.80;2.45;;;;;;;;;;10592345;27;20039;-76
2023/06/21 15:47:29;;;;;;;9.13;2.85;;;;;;;;;;10593119;28;20044;-76
2023/06/21 15:52:32;;;;;;;8.65;3.17;;;;;;;;;;10591365;28;20460;-75
2023/06/21 15:57:36;;;;;;;8.82;2.95;;;;;;;;;;10586716;27;20103;-75
2023/06/21 16:02:39;;;;;;;10.18;2.88;;;;;;;;;;10592776;28;20138;-76
2023/06/21 16:07:42;;;;;;;8.07;2.70;;;;;;;;;;10590489;27;20048;-75
2023/06/21 16:12:47;;;;;;;9.07;2.80;;;;;;;;;;10594174;27;20051;-76
2023/06/21 16:18:00;;;;;;;9.43;3.22;;;;;;;;;;10588583;27;20231;-76
2023/06/21 16:23:03;;;;;;;12.52;2.65;;;;;;;;;;10589964;28;20053;-75
2023/06/21 16:28:07;;;;;;;11.15;3.72;;;;;;;;;;10591138;27;20095;-75
2023/06/21 16:33:10;;;;;;;10.57;2.83;;;;;;;;;;10588962;27;20082;-76
2023/06/21 16:38:13;;;;;;;12.20;2.83;;;;;;;;;;10582239;28;20512;-75
2023/06/21 16:43:17;;;;;;;13.18;4.15;;;;;;;;;;10584453;28;20046;-74
2023/06/21 16:48:20;;;;;;;11.27;3.17;;;;;;;;;;10592006;27;20049;-75
2023/06/21 16:53:22;;;;;;;9.05;2.88;;;;;;;;;;10589153;28;20060;-75
2023/06/21 16:58:26;;;;;;;10.65;2.72;;;;;;;;;;10585987;28;20063;-76
2023/06/21 17:03:30;;;;;;;9.00;3.03;;;;;;;;;;10587013;28;20040;-76
2023/06/21 17:08:32;;;;;;;9.32;3.30;;;;;;;;;;10588048;27;20047;-75
2023/06/21 17:13:36;;;;;;;9.25;2.65;;;;;;;;;;10593412;27;20105;-76
2023/06/21 17:18:39;;;;;;;13.80;2.80;;;;;;;;;;10593339;28;20036;-76
2023/06/21 17:23:42;;;;;;;10.48;2.80;;;;;;;;;;10587811;27;20042;-76
2023/06/21 17:28:46;;;;;;;12.02;3.28;;;;;;;;;;10589793;28;20054;-77
2023/06/21 17:33:49;;;;;;;9.50;3.40;;;;;;;;;;10578592;28;20094;-76
2023/06/21 17:38:52;;;;;;;10.07;4.72;;;;;;;;;;10586932;28;20100;-76
2023/06/21 17:44:04;;;;;;;12.80;3.08;;;;;;;;;;10592780;27;20139;-76
2023/06/21 17:49:07;;;;;;;8.85;3.00;;;;;;;;;;10589121;28;20055;-77
2023/06/21 17:54:10;;;;;;;10.90;3.17;;;;;;;;;;10586425;28;20078;-77
2023/06/21 17:59:15;;;;;;;7.28;3.00;;;;;;;;;;10587152;28;20040;-77
2023/06/21 18:04:18;;;;;;;21.92;9.38;;;;;;;;;;10580515;28;20044;-77
2023/06/21 18:09:20;;;;;;;13.68;3.33;;;;;;;;;;10590763;28;20047;-75
2023/06/21 18:14:24;;;;;;;10.65;2.88;;;;;;;;;;10585812;28;20130;-77
2023/06/21 18:19:27;;;;;;;14.73;4.97;;;;;;;;;;10588507;28;20070;-77
2023/06/21 18:24:30;;;;;;;8.30;2.70;;;;;;;;;;10584072;28;20050;-76
2023/06/21 18:29:34;;;;;;;8.02;2.65;;;;;;;;;;10585589;28;20040;-76
2023/06/21 18:34:37;;;;;;;8.02;2.53;;;;;;;;;;10580384;28;20097;-75
2023/06/21 18:39:40;;;;;;;11.20;3.10;;;;;;;;;;10584772;28;20071;-77
2023/06/21 18:44:44;;;;;;;9.35;2.55;;;;;;;;;;10593325;28;20036;-76
2023/06/21 18:49:47;;;;;;;6.88;2.53;;;;;;;;;;10591933;27;20046;-78
2023/06/21 18:54:50;;;;;;;19.02;5.55;;;;;;;;;;10598680;27;20617;-76
2023/06/21 18:59:52;;;;;;;;;;;;;;;;;;10597573;28;20043;-76
2023/06/21 19:04:56;;;;;;;7.67;2.80;;;;;;;;;;10592257;28;20015;-77
2023/06/21 19:09:59;;;;;;;10.57;2.78;;;;;;;;;;10591528;28;20385;-77
2023/06/21 19:15:02;;;;;;;;;;;;;;;;;;10576397;27;20474;-77
2023/06/21 19:20:06;;;;;;;9.57;3.10;;;;;;;;;;10600179;28;19934;-84
2023/06/21 19:25:09;;;;;;;7.82;3.05;;;;;;;;;;10594625;27;20058;-78
2023/06/21 19:30:11;;;;;;;;;;;;;;;;;;10594579;28;20098;-78
2023/06/21 19:35:20;;;;;;;10.15;3.25;;;;;;;;;;10593021;28;19919;-78
2023/06/21 19:40:23;;;;;;;7.95;2.30;;;;;;;;;;10590190;27;20124;-78
2023/06/21 19:45:26;;;;;;;12.70;3.13;;;;;;;;;;10593502;27;20039;-78
2023/06/21 19:50:30;;;;;;;13.73;2.70;;;;;;;;;;10592510;27;20040;-78
2023/06/21 19:55:32;;;;;;;9.95;2.80;;;;;;;;;;10589562;28;20095;-78
2023/06/21 20:00:35;;;;;;;10.15;2.65;;;;;;;;;;10591500;27;20143;-77
2023/06/21 20:05:39;;;;;;;8.60;2.58;;;;;;;;;;10591500;27;20027;-77
2023/06/21 20:10:42;;;;;;;8.65;2.60;;;;;;;;;;10587787;27;20122;-77
2023/06/21 20:15:45;;;;;;;6.70;2.75;;;;;;;;;;10589162;27;20126;-79
2023/06/21 20:20:49;;;;;;;9.85;2.72;;;;;;;;;;10587738;27;20089;-79
2023/06/21 20:25:52;;;;;;;10.50;2.60;;;;;;;;;;10587829;28;20046;-79
2023/06/21 20:30:54;;;;;;;8.02;2.85;;;;;;;;;;10592206;27;20050;-79
2023/06/21 20:35:58;;;;;;;8.13;2.78;;;;;;;;;;10592997;27;20435;-77
2023/06/21 20:41:02;;;;;;;7.07;2.92;;;;;;;;;;10587197;27;20035;-79
2023/06/21 20:46:05;;;;;;;9.05;3.20;;;;;;;;;;10587594;28;20146;-78
2023/06/21 20:51:09;;;;;;;9.55;3.22;;;;;;;;;;10589935;27;20043;-79
2023/06/21 20:56:12;;;;;;;9.13;3.03;;;;;;;;;;10585763;27;20059;-77
2023/06/21 21:01:15;;;;;;;9.60;2.90;;;;;;;;;;10587850;28;20078;-78
2023/06/21 21:06:19;;;;;;;7.03;2.63;;;;;;;;;;10590072;27;20027;-78
2023/06/21 21:11:23;;;;;;;9.45;2.78;;;;;;;;;;10585204;27;20552;-77
2023/06/21 21:16:28;;;;;;;7.45;2.50;;;;;;;;;;10593472;28;20067;-76
2023/06/21 21:21:33;;;;;;;8.13;2.60;;;;;;;;;;10595002;27;20044;-77
2023/06/21 21:26:35;;;;;;;11.07;3.00;;;;;;;;;;10591265;28;20035;-77
2023/06/21 21:31:38;;;;;;;5.47;2.75;;;;;;;;;;10584068;28;20035;-76
2023/06/21 21:36:42;;;;;;;6.85;2.80;;;;;;;;;;10571659;27;20039;-79
2023/06/21 21:41:45;;;;;;;9.80;3.50;;;;;;;;;;10587717;27;20031;-78
2023/06/21 21:46:48;;;;;;;9.70;2.88;;;;;;;;;;10585395;27;20067;-78
2023/06/21 21:51:52;;;;;;;7.45;2.90;;;;;;;;;;10588698;27;20070;-78
2023/06/21 21:56:55;;;;;;;6.38;2.72;;;;;;;;;;10584384;28;20047;-77
2023/06/21 22:01:58;;;;;;;7.80;2.33;;;;;;;;;;10587286;28;20074;-78
2023/06/21 22:07:01;;;;;;;6.85;2.60;;;;;;;;;;10592860;28;20073;-78
2023/06/21 22:12:05;;;;;;;5.93;2.67;;;;;;;;;;10581182;28;20484;-77
2023/06/21 22:17:08;;;;;;;6.68;2.90;;;;;;;;;;10583934;28;20074;-78
2023/06/21 22:22:12;;;;;;;6.32;2.65;;;;;;;;;;10594561;27;20112;-77
2023/06/21 22:27:16;;;;;;;6.28;2.67;;;;;;;;;;10590834;27;20047;-79
2023/06/21 22:32:19;;;;;;;6.47;2.90;;;;;;;;;;10593727;28;20099;-76
2023/06/21 22:37:23;;;;;;;9.65;3.03;;;;;;;;;;10591718;27;20122;-76
2023/06/21 22:42:25;;;;;;;10.73;2.92;;;;;;;;;;10593952;27;20157;-76
2023/06/21 22:47:28;;;;;;;6.50;3.38;;;;;;;;;;10604174;27;20088;-78
2023/06/21 22:52:32;;;;;;;7.93;3.05;;;;;;;;;;10595856;28;20104;-77
2023/06/21 22:57:35;;;;;;;9.25;2.80;;;;;;;;;;10593235;27;20096;-78
2023/06/21 23:02:38;;;;;;;8.38;2.90;;;;;;;;;;10592522;27;20059;-77
2023/06/21 23:07:42;;;;;;;6.38;2.65;;;;;;;;;;10589256;28;20040;-77
2023/06/21 23:12:47;;;;;;;8.13;3.50;;;;;;;;;;10608502;27;20147;-77
2023/06/21 23:17:50;;;;;;;6.80;2.90;;;;;;;;;;10594746;27;20531;-78
2023/06/21 23:22:55;;;;;;;8.73;3.13;;;;;;;;;;10565329;28;20043;-77
2023/06/21 23:28:07;;;;;;;5.50;2.83;;;;;;;;;;10599092;27;20127;-77
2023/06/21 23:33:10;;;;;;;6.45;2.90;;;;;;;;;;10591638;28;20067;-76
2023/06/21 23:38:14;;;;;;;9.63;2.78;;;;;;;;;;10593529;27;20032;-78
2023/06/21 23:43:19;;;;;;;8.73;3.13;;;;;;;;;;10590953;28;20366;-77
2023/06/21 23:48:22;;;;;;;9.27;2.95;;;;;;;;;;10593466;27;20043;-77
2023/06/21 23:53:27;;;;;;;8.70;2.60;;;;;;;;;;10571815;28;20071;-77
2023/06/21 23:58:29;;;;;;;8.30;3.00;;;;;;;;;;10589480;28;20039;-77
